Time;durP1;ratioP1;P1;durP2;ratioP2;P2;SDS_P1;SDS_P2;PMS_P1;PMS_P2;Temp;Humidity;BMP_temperature;BMP_pressure;BME280_temperature;BME280_humidity;BME280_pressure;Samples;Min_cycle;Max_cycle;Signal;HPM_P1;HPM_P2
2023/09/23 00:01:04;;;;;;;6.10;3.60;;;;;;;;;;5145449;27;20501;-71
2023/09/23 00:03:33;;;;;;;7.22;3.30;;;;;;;;;;5127511;27;20202;-71
2023/09/23 00:05:59;;;;;;;4.55;3.92;;;;;;;;;;5132377;27;20187;-72
2023/09/23 00:08:25;;;;;;;5.78;4.00;;;;;;;;;;5133143;27;20257;-72
2023/09/23 00:10:50;;;;;;;5.63;4.05;;;;;;;;;;5121249;27;20268;-72
2023/09/23 00:13:16;;;;;;;5.32;4.10;;;;;;;;;;5139323;27;20190;-74
2023/09/23 00:15:43;;;;;;;4.35;3.95;;;;;;;;;;5116050;27;20622;-71
2023/09/23 00:18:09;;;;;;;5.20;4.32;;;;;;;;;;5121061;27;20255;-72
2023/09/23 00:20:36;;;;;;;5.50;4.60;;;;;;;;;;5114551;27;20188;-73
2023/09/23 00:23:05;;;;;;;8.10;4.80;;;;;;;;;;5113774;27;20853;-72
2023/09/23 00:25:31;;;;;;;7.88;5.55;;;;;;;;;;5141468;27;20569;-72
2023/09/23 00:27:56;;;;;;;6.00;5.32;;;;;;;;;;5114560;27;20194;-72
2023/09/23 00:30:26;;;;;;;6.45;5.78;;;;;;;;;;5139381;27;20190;-72
2023/09/23 00:32:52;;;;;;;8.48;6.70;;;;;;;;;;5146649;27;20171;-72
2023/09/23 00:35:18;;;;;;;9.02;7.75;;;;;;;;;;5143220;27;20583;-72
2023/09/23 00:37:45;;;;;;;9.40;6.97;;;;;;;;;;5121780;27;20663;-72
2023/09/23 00:40:17;;;;;;;10.35;7.85;;;;;;;;;;5131261;27;20190;-72
2023/09/23 00:42:44;;;;;;;10.48;7.25;;;;;;;;;;5122909;27;20186;-72
2023/09/23 00:45:14;;;;;;;10.43;7.63;;;;;;;;;;5131051;27;20261;-72
2023/09/23 00:47:42;;;;;;;10.65;7.85;;;;;;;;;;5118390;27;20264;-72
2023/09/23 00:50:18;;;;;;;9.43;7.72;;;;;;;;;;5125778;27;20644;-72
2023/09/23 00:52:47;;;;;;;8.98;6.93;;;;;;;;;;5135929;27;20688;-71
2023/09/23 00:55:13;;;;;;;10.80;8.15;;;;;;;;;;5111843;27;20313;-71
2023/09/23 00:57:41;;;;;;;9.65;8.52;;;;;;;;;;5137334;27;20228;-70
2023/09/23 01:00:11;;;;;;;10.88;8.70;;;;;;;;;;5144008;27;20235;-71
2023/09/23 01:02:37;;;;;;;9.18;8.27;;;;;;;;;;5133703;27;20191;-71
2023/09/23 01:05:04;;;;;;;12.00;8.98;;;;;;;;;;5132275;27;20633;-71
2023/09/23 01:07:31;;;;;;;12.93;8.77;;;;;;;;;;5136277;27;20182;-71
2023/09/23 01:09:57;;;;;;;10.77;9.68;;;;;;;;;;5133744;27;20671;-70
2023/09/23 01:12:22;;;;;;;11.68;9.45;;;;;;;;;;5134937;27;20178;-71
2023/09/23 01:14:48;;;;;;;12.18;9.38;;;;;;;;;;5120342;27;20194;-71
2023/09/23 01:17:15;;;;;;;11.27;9.93;;;;;;;;;;5138029;27;20221;-71
2023/09/23 01:19:41;;;;;;;13.02;9.63;;;;;;;;;;5150851;27;20186;-72
2023/09/23 01:22:08;;;;;;;13.88;9.52;;;;;;;;;;5133873;27;20695;-71
2023/09/23 01:24:34;;;;;;;13.73;10.25;;;;;;;;;;5136874;27;20195;-72
2023/09/23 01:26:59;;;;;;;12.02;9.45;;;;;;;;;;5139161;27;20734;-71
2023/09/23 01:29:26;;;;;;;12.57;10.40;;;;;;;;;;5151166;27;20261;-71
2023/09/23 01:32:30;;;;;;;13.98;9.88;;;;;;;;;;5130452;27;20203;-69
2023/09/23 01:34:56;;;;;;;13.45;10.88;;;;;;;;;;5100205;27;20213;-72
2023/09/23 01:37:23;;;;;;;16.30;10.95;;;;;;;;;;5128747;27;20704;-71
2023/09/23 01:39:48;;;;;;;13.63;10.52;;;;;;;;;;5132082;27;20189;-72
2023/09/23 01:42:14;;;;;;;13.35;11.23;;;;;;;;;;5119931;27;20186;-72
2023/09/23 01:44:40;;;;;;;14.30;10.95;;;;;;;;;;5141249;27;20266;-71
2023/09/23 01:47:05;;;;;;;14.32;11.00;;;;;;;;;;5130646;27;20174;-71
2023/09/23 01:49:31;;;;;;;16.20;11.90;;;;;;;;;;5112196;27;20174;-70
2023/09/23 01:51:57;;;;;;;15.05;11.15;;;;;;;;;;5112031;27;20174;-71
2023/09/23 01:54:22;;;;;;;15.02;11.13;;;;;;;;;;5144767;27;20194;-69
2023/09/23 01:56:47;;;;;;;16.48;12.60;;;;;;;;;;5129118;27;20235;-71
2023/09/23 01:59:13;;;;;;;15.73;12.73;;;;;;;;;;5134945;27;20660;-70
2023/09/23 02:01:40;;;;;;;17.42;13.10;;;;;;;;;;5145420;27;20202;-70
2023/09/23 02:04:07;;;;;;;15.98;12.55;;;;;;;;;;5144703;27;20245;-71
2023/09/23 02:06:38;;;;;;;14.50;11.63;;;;;;;;;;5111816;27;20247;-69
2023/09/23 02:09:04;;;;;;;16.75;13.52;;;;;;;;;;5122688;27;20194;-70
2023/09/23 02:11:30;;;;;;;17.85;13.00;;;;;;;;;;5144006;27;20650;-71
2023/09/23 02:13:55;;;;;;;17.48;12.32;;;;;;;;;;5139569;27;20197;-71
2023/09/23 02:16:21;;;;;;;17.00;13.35;;;;;;;;;;5141386;27;20237;-70
2023/09/23 02:18:51;;;;;;;16.67;12.20;;;;;;;;;;5140908;27;20220;-69
2023/09/23 02:21:18;;;;;;;19.02;13.43;;;;;;;;;;5114061;27;20785;-70
2023/09/23 02:23:43;;;;;;;20.33;12.68;;;;;;;;;;5134120;27;20187;-69
2023/09/23 02:26:09;;;;;;;18.17;12.35;;;;;;;;;;5130267;27;20235;-70
2023/09/23 02:28:35;;;;;;;18.63;13.10;;;;;;;;;;5139401;27;20186;-70
2023/09/23 02:31:00;;;;;;;21.40;11.88;;;;;;;;;;5114442;27;20186;-70
2023/09/23 02:33:26;;;;;;;21.00;12.60;;;;;;;;;;5149239;27;20236;-70
2023/09/23 02:35:52;;;;;;;19.50;13.60;;;;;;;;;;5121165;27;20214;-71
2023/09/23 02:38:18;;;;;;;20.92;13.75;;;;;;;;;;5130950;27;20205;-71
2023/09/23 02:40:45;;;;;;;19.75;13.50;;;;;;;;;;5130165;27;20553;-69
2023/09/23 02:43:11;;;;;;;20.08;14.10;;;;;;;;;;5142198;27;20178;-70
2023/09/23 02:45:36;;;;;;;20.73;13.32;;;;;;;;;;5142655;27;20193;-70
2023/09/23 02:48:02;;;;;;;21.17;13.60;;;;;;;;;;5129858;27;20187;-68
2023/09/23 02:50:27;;;;;;;20.27;12.52;;;;;;;;;;5148778;27;20613;-70
2023/09/23 02:52:52;;;;;;;20.77;15.30;;;;;;;;;;5130979;27;20601;-71
2023/09/23 02:55:19;;;;;;;19.88;14.60;;;;;;;;;;5114425;27;20190;-70
2023/09/23 02:57:48;;;;;;;19.48;14.70;;;;;;;;;;5107732;28;20215;-70
2023/09/23 03:00:22;;;;;;;24.20;14.65;;;;;;;;;;5112190;28;20183;-71
2023/09/23 03:02:53;;;;;;;22.52;15.13;;;;;;;;;;5107609;28;20182;-71
2023/09/23 03:05:23;;;;;;;19.77;13.40;;;;;;;;;;5124387;28;20197;-70
2023/09/23 03:07:50;;;;;;;20.77;15.00;;;;;;;;;;5109848;28;20548;-71
2023/09/23 03:10:19;;;;;;;18.42;13.80;;;;;;;;;;5116024;27;20533;-70
2023/09/23 03:12:56;;;;;;;21.27;13.85;;;;;;;;;;5118838;28;20208;-70
2023/09/23 03:15:33;;;;;;;19.85;13.38;;;;;;;;;;5120238;27;20297;-70
2023/09/23 03:17:59;;;;;;;17.27;12.25;;;;;;;;;;5122051;28;20226;-70
2023/09/23 03:20:26;;;;;;;20.85;13.30;;;;;;;;;;5118483;27;20222;-69
2023/09/23 03:22:54;;;;;;;17.50;12.27;;;;;;;;;;5119775;28;20190;-71
2023/09/23 03:25:20;;;;;;;16.38;11.82;;;;;;;;;;5108171;28;20214;-70
2023/09/23 03:27:50;;;;;;;16.17;11.60;;;;;;;;;;5108547;28;20210;-70
2023/09/23 03:30:17;;;;;;;18.08;12.80;;;;;;;;;;5107460;28;20693;-70
2023/09/23 03:32:46;;;;;;;17.02;12.25;;;;;;;;;;5123548;28;20290;-71
2023/09/23 03:35:23;;;;;;;20.52;12.35;;;;;;;;;;5127729;27;20262;-69
2023/09/23 03:37:50;;;;;;;19.40;12.95;;;;;;;;;;5122062;27;20190;-72
2023/09/23 03:40:20;;;;;;;19.70;12.27;;;;;;;;;;5121668;28;20206;-70
2023/09/23 03:42:48;;;;;;;17.23;12.25;;;;;;;;;;5119404;27;20689;-69
2023/09/23 03:45:15;;;;;;;19.75;12.80;;;;;;;;;;5122184;28;20255;-70
2023/09/23 03:47:40;;;;;;;15.30;11.50;;;;;;;;;;5119674;28;20186;-69
2023/09/23 03:50:07;;;;;;;17.05;12.75;;;;;;;;;;5127238;27;20205;-70
2023/09/23 03:52:33;;;;;;;19.65;14.18;;;;;;;;;;5112658;28;20187;-69
2023/09/23 03:54:59;;;;;;;19.83;15.30;;;;;;;;;;5125513;27;20189;-71
2023/09/23 03:57:24;;;;;;;21.23;16.08;;;;;;;;;;5121520;27;20230;-71
2023/09/23 03:59:49;;;;;;;19.95;14.82;;;;;;;;;;5120789;27;20188;-70
2023/09/23 04:02:15;;;;;;;25.23;17.20;;;;;;;;;;5116386;27;20270;-71
2023/09/23 04:04:41;;;;;;;24.23;17.50;;;;;;;;;;5115260;27;20308;-69
2023/09/23 04:07:07;;;;;;;27.17;19.05;;;;;;;;;;5120561;27;20225;-69
2023/09/23 04:09:33;;;;;;;28.20;18.42;;;;;;;;;;5131213;27;20198;-69
2023/09/23 04:12:05;;;;;;;26.40;19.35;;;;;;;;;;5125488;27;20195;-77
2023/09/23 04:14:30;;;;;;;27.60;20.38;;;;;;;;;;5116549;27;20191;-70
2023/09/23 04:16:56;;;;;;;32.22;22.17;;;;;;;;;;5113098;27;20215;-71
2023/09/23 04:19:21;;;;;;;31.00;21.55;;;;;;;;;;5126849;27;20179;-69
2023/09/23 04:21:47;;;;;;;29.70;20.98;;;;;;;;;;5124669;27;20278;-69
2023/09/23 04:24:12;;;;;;;31.08;23.08;;;;;;;;;;5115537;27;20195;-69
2023/09/23 04:26:38;;;;;;;33.75;23.23;;;;;;;;;;5120702;27;20192;-70
2023/09/23 04:29:04;;;;;;;30.77;22.67;;;;;;;;;;5129533;27;20218;-70
2023/09/23 04:31:29;;;;;;;32.72;24.23;;;;;;;;;;5124920;27;20210;-70
2023/09/23 04:33:54;;;;;;;34.70;24.95;;;;;;;;;;5124294;27;20578;-70
2023/09/23 04:36:21;;;;;;;29.90;23.42;;;;;;;;;;5125325;27;20253;-70
2023/09/23 04:38:49;;;;;;;31.77;24.45;;;;;;;;;;5126036;27;20252;-71
2023/09/23 04:41:15;;;;;;;33.00;23.05;;;;;;;;;;5117571;27;20284;-71
2023/09/23 04:43:41;;;;;;;33.45;23.30;;;;;;;;;;5121377;27;20266;-70
2023/09/23 04:46:07;;;;;;;34.10;24.85;;;;;;;;;;5112096;27;20635;-70
2023/09/23 04:48:32;;;;;;;36.25;24.63;;;;;;;;;;5117962;27;20198;-70
2023/09/23 04:50:58;;;;;;;34.63;25.40;;;;;;;;;;5111709;28;20182;-70
2023/09/23 04:53:24;;;;;;;31.30;22.58;;;;;;;;;;5120126;27;20327;-69
2023/09/23 04:55:49;;;;;;;36.20;25.58;;;;;;;;;;5131925;27;20270;-70
2023/09/23 04:58:15;;;;;;;37.58;26.08;;;;;;;;;;5134862;27;20318;-69
2023/09/23 05:00:40;;;;;;;36.42;26.85;;;;;;;;;;5123257;27;20194;-70
2023/09/23 05:03:08;;;;;;;41.03;27.08;;;;;;;;;;5143584;27;20282;-70
2023/09/23 05:05:34;;;;;;;38.10;26.23;;;;;;;;;;5131896;27;20186;-68
2023/09/23 05:08:00;;;;;;;37.80;26.63;;;;;;;;;;5129567;27;20178;-68
2023/09/23 05:10:26;;;;;;;39.17;27.67;;;;;;;;;;5130566;27;20185;-70
2023/09/23 05:12:56;;;;;;;40.22;27.60;;;;;;;;;;5143539;27;20182;-70
2023/09/23 05:15:24;;;;;;;38.65;26.85;;;;;;;;;;5135642;27;20634;-69
2023/09/23 05:17:50;;;;;;;38.95;28.92;;;;;;;;;;5133698;27;20524;-69
2023/09/23 05:20:16;;;;;;;43.28;29.38;;;;;;;;;;5130762;27;20177;-69
2023/09/23 05:22:42;;;;;;;44.20;28.80;;;;;;;;;;5145418;27;20952;-70
2023/09/23 05:25:08;;;;;;;44.80;28.65;;;;;;;;;;5120862;27;20190;-69
2023/09/23 05:27:33;;;;;;;40.47;27.48;;;;;;;;;;5141392;27;20178;-70
2023/09/23 05:29:59;;;;;;;40.45;28.73;;;;;;;;;;5121612;27;20647;-70
2023/09/23 05:32:24;;;;;;;41.55;27.90;;;;;;;;;;5122538;27;20186;-70
2023/09/23 05:34:52;;;;;;;39.53;28.08;;;;;;;;;;5145123;27;20186;-71
2023/09/23 05:37:18;;;;;;;42.70;27.75;;;;;;;;;;5136217;27;20206;-71
2023/09/23 05:39:45;;;;;;;32.30;24.15;;;;;;;;;;5111300;27;20243;-70
2023/09/23 05:42:15;;;;;;;42.47;27.02;;;;;;;;;;5118655;27;20178;-71
2023/09/23 05:44:41;;;;;;;40.22;27.42;;;;;;;;;;5142856;27;20190;-71
2023/09/23 05:47:06;;;;;;;39.33;26.70;;;;;;;;;;5145011;27;20202;-69
2023/09/23 05:49:32;;;;;;;40.03;26.58;;;;;;;;;;5149156;27;20629;-70
2023/09/23 05:51:57;;;;;;;35.83;25.08;;;;;;;;;;5100076;27;20194;-71
2023/09/23 05:54:23;;;;;;;35.17;25.50;;;;;;;;;;5130309;27;20183;-70
2023/09/23 05:56:48;;;;;;;34.72;24.23;;;;;;;;;;5111215;27;20227;-70
2023/09/23 05:59:15;;;;;;;35.50;25.40;;;;;;;;;;5112050;27;20253;-70
2023/09/23 06:01:40;;;;;;;30.73;23.55;;;;;;;;;;5120414;27;20493;-70
2023/09/23 06:04:09;;;;;;;32.20;23.83;;;;;;;;;;5120575;27;20720;-70
2023/09/23 06:06:36;;;;;;;34.90;23.63;;;;;;;;;;5117104;27;20223;-70
2023/09/23 06:09:02;;;;;;;31.05;22.25;;;;;;;;;;5111932;27;20176;-69
2023/09/23 06:11:27;;;;;;;35.58;23.10;;;;;;;;;;5111110;27;20227;-70
2023/09/23 06:13:53;;;;;;;34.17;23.67;;;;;;;;;;5111305;27;20191;-71
2023/09/23 06:16:18;;;;;;;30.05;23.00;;;;;;;;;;5112926;27;20207;-71
2023/09/23 06:18:43;;;;;;;29.20;21.48;;;;;;;;;;5119635;27;20521;-68
2023/09/23 06:21:09;;;;;;;32.53;21.88;;;;;;;;;;5128402;27;20178;-71
2023/09/23 06:23:34;;;;;;;33.35;21.60;;;;;;;;;;5121194;27;20194;-71
2023/09/23 06:26:05;;;;;;;27.05;21.60;;;;;;;;;;4407301;27;10000840;-71
2023/09/23 06:28:31;;;;;;;26.92;21.27;;;;;;;;;;5124327;27;20528;-71
2023/09/23 06:30:57;;;;;;;29.40;22.00;;;;;;;;;;5118651;27;20183;-69
2023/09/23 06:33:23;;;;;;;30.75;21.90;;;;;;;;;;5110439;27;20693;-70
2023/09/23 06:35:49;;;;;;;27.92;18.70;;;;;;;;;;5117163;27;20218;-71
2023/09/23 06:38:15;;;;;;;26.63;20.27;;;;;;;;;;5119616;27;20175;-70
2023/09/23 06:40:40;;;;;;;30.88;20.42;;;;;;;;;;5115109;28;20179;-69
2023/09/23 06:43:06;;;;;;;26.58;20.00;;;;;;;;;;5112620;27;20214;-70
2023/09/23 06:45:31;;;;;;;24.80;18.98;;;;;;;;;;5122010;27;20178;-70
2023/09/23 06:47:57;;;;;;;29.35;20.35;;;;;;;;;;5125154;28;20183;-70
2023/09/23 06:50:22;;;;;;;25.38;18.83;;;;;;;;;;5112032;28;20511;-69
2023/09/23 06:52:48;;;;;;;27.15;18.52;;;;;;;;;;5118333;27;20197;-68
2023/09/23 06:55:13;;;;;;;25.88;18.73;;;;;;;;;;5117424;27;20205;-70
2023/09/23 06:57:39;;;;;;;24.92;18.35;;;;;;;;;;5122654;27;20222;-69
2023/09/23 07:00:06;;;;;;;27.35;18.95;;;;;;;;;;5135653;27;20193;-68
2023/09/23 07:02:32;;;;;;;26.88;18.17;;;;;;;;;;5132250;27;20186;-70
2023/09/23 07:04:57;;;;;;;25.27;18.13;;;;;;;;;;5118519;27;20186;-69
2023/09/23 07:07:23;;;;;;;25.08;17.13;;;;;;;;;;5131136;27;20636;-70
2023/09/23 07:09:48;;;;;;;23.05;17.52;;;;;;;;;;5138982;27;20193;-68
2023/09/23 07:12:14;;;;;;;22.20;17.33;;;;;;;;;;5134456;27;20219;-69
2023/09/23 07:14:40;;;;;;;26.80;17.45;;;;;;;;;;5141409;27;20269;-70
2023/09/23 07:17:06;;;;;;;21.77;16.67;;;;;;;;;;5134692;27;20708;-68
2023/09/23 07:19:32;;;;;;;26.00;17.80;;;;;;;;;;5122389;27;20190;-70
2023/09/23 07:21:58;;;;;;;21.13;16.38;;;;;;;;;;5132117;27;20183;-69
2023/09/23 07:24:26;;;;;;;22.48;16.73;;;;;;;;;;5130360;27;20614;-71
2023/09/23 07:26:54;;;;;;;22.52;16.13;;;;;;;;;;5149474;27;20178;-69
2023/09/23 07:29:19;;;;;;;21.80;16.70;;;;;;;;;;5143168;27;20621;-71
2023/09/23 07:31:44;;;;;;;22.27;16.48;;;;;;;;;;5142320;27;20209;-70
2023/09/23 07:34:11;;;;;;;21.67;14.68;;;;;;;;;;5143420;27;20218;-68
2023/09/23 07:36:37;;;;;;;18.15;14.75;;;;;;;;;;5147648;27;20210;-68
2023/09/23 07:39:03;;;;;;;20.05;15.48;;;;;;;;;;5142308;27;20186;-69
2023/09/23 07:41:28;;;;;;;23.10;15.90;;;;;;;;;;5114894;27;20617;-70
2023/09/23 07:43:53;;;;;;;21.25;15.70;;;;;;;;;;5116685;27;20274;-69
2023/09/23 07:46:19;;;;;;;17.80;14.32;;;;;;;;;;5141146;27;20189;-68
2023/09/23 07:48:44;;;;;;;21.73;15.40;;;;;;;;;;5138656;27;20186;-70
2023/09/23 07:51:12;;;;;;;17.55;14.35;;;;;;;;;;5133283;27;20300;-71
2023/09/23 07:53:37;;;;;;;17.15;14.20;;;;;;;;;;5132012;27;20216;-69
2023/09/23 07:56:03;;;;;;;21.05;13.85;;;;;;;;;;5141753;27;20218;-70
2023/09/23 08:03:32;;;;;;;18.23;12.75;;;;;;;;;;5079874;28;20263;-74
2023/09/23 08:05:58;;;;;;;15.73;12.38;;;;;;;;;;5074996;28;20184;-68
2023/09/23 08:08:23;;;;;;;18.80;11.73;;;;;;;;;;5104129;28;20271;-70
2023/09/23 08:10:53;;;;;;;15.43;11.18;;;;;;;;;;5079502;28;20180;-69
2023/09/23 08:13:19;;;;;;;17.17;11.68;;;;;;;;;;5088338;28;20263;-68
2023/09/23 08:15:45;;;;;;;16.15;11.15;;;;;;;;;;5088987;28;20197;-72
2023/09/23 08:18:12;;;;;;;14.73;10.98;;;;;;;;;;5082635;28;20183;-68
2023/09/23 08:20:38;;;;;;;15.07;11.13;;;;;;;;;;5097642;28;20195;-70
2023/09/23 08:23:03;;;;;;;17.25;12.20;;;;;;;;;;5086345;28;20176;-71
2023/09/23 08:25:29;;;;;;;11.90;10.63;;;;;;;;;;5091386;28;20204;-71
2023/09/23 08:27:54;;;;;;;14.48;10.20;;;;;;;;;;5081630;28;20196;-70
2023/09/23 08:30:20;;;;;;;12.75;10.70;;;;;;;;;;5081994;28;20199;-70
2023/09/23 08:32:45;;;;;;;12.57;9.68;;;;;;;;;;5072524;28;20203;-71
2023/09/23 08:35:11;;;;;;;15.23;9.95;;;;;;;;;;5076021;28;20292;-69
2023/09/23 08:37:37;;;;;;;12.90;9.40;;;;;;;;;;5062448;28;20212;-71
2023/09/23 08:40:10;;;;;;;15.75;9.77;;;;;;;;;;5083692;28;20388;-69
2023/09/23 08:42:36;;;;;;;12.80;8.52;;;;;;;;;;5079242;28;20573;-70
2023/09/23 08:45:03;;;;;;;11.05;9.10;;;;;;;;;;5087080;28;20189;-71
2023/09/23 08:47:29;;;;;;;14.82;9.07;;;;;;;;;;5090433;28;20288;-70
2023/09/23 08:49:55;;;;;;;12.40;9.50;;;;;;;;;;5087997;28;20642;-69
2023/09/23 08:52:24;;;;;;;14.27;9.18;;;;;;;;;;5082640;28;20192;-69
2023/09/23 08:54:50;;;;;;;12.82;8.32;;;;;;;;;;5083166;28;20658;-70
2023/09/23 08:57:16;;;;;;;9.75;7.72;;;;;;;;;;5087825;28;20230;-70
2023/09/23 08:59:42;;;;;;;10.88;8.18;;;;;;;;;;5084919;28;20189;-69
2023/09/23 09:02:07;;;;;;;12.10;8.32;;;;;;;;;;5085876;28;20318;-69
2023/09/23 09:04:33;;;;;;;10.77;8.02;;;;;;;;;;5042319;28;20189;-69
2023/09/23 09:06:58;;;;;;;10.75;7.13;;;;;;;;;;5080056;28;20599;-68
2023/09/23 09:09:25;;;;;;;10.27;7.28;;;;;;;;;;4388195;28;10000917;-70
2023/09/23 09:11:53;;;;;;;11.57;6.97;;;;;;;;;;5072782;28;20202;-69
2023/09/23 09:14:19;;;;;;;12.00;7.03;;;;;;;;;;5082352;28;20668;-68
2023/09/23 09:16:45;;;;;;;10.73;6.53;;;;;;;;;;5086307;28;20215;-70
2023/09/23 09:19:10;;;;;;;11.80;7.20;;;;;;;;;;5081584;28;20197;-68
2023/09/23 09:21:36;;;;;;;11.98;5.70;;;;;;;;;;5077740;28;20634;-70
2023/09/23 09:24:02;;;;;;;9.02;6.93;;;;;;;;;;5083328;28;20222;-70
2023/09/23 09:26:28;;;;;;;10.15;6.70;;;;;;;;;;5089663;28;20179;-68
2023/09/23 09:28:53;;;;;;;8.30;6.10;;;;;;;;;;5092461;28;20188;-68
2023/09/23 09:31:19;;;;;;;11.45;6.53;;;;;;;;;;5082445;28;20192;-69
2023/09/23 09:33:49;;;;;;;12.18;6.32;;;;;;;;;;5081754;28;20742;-70
2023/09/23 09:36:18;;;;;;;10.43;6.40;;;;;;;;;;5090561;28;20207;-70
2023/09/23 09:38:44;;;;;;;8.32;5.97;;;;;;;;;;5087886;28;20198;-70
2023/09/23 09:41:16;;;;;;;6.97;5.68;;;;;;;;;;5097263;28;20274;-71
2023/09/23 09:43:45;;;;;;;8.25;6.07;;;;;;;;;;5086250;28;20196;-68
2023/09/23 09:46:13;;;;;;;12.00;5.78;;;;;;;;;;5080411;28;20671;-70
2023/09/23 09:48:41;;;;;;;9.05;5.88;;;;;;;;;;5086051;28;20604;-68
2023/09/23 09:51:07;;;;;;;9.25;5.80;;;;;;;;;;5084213;28;20196;-68
2023/09/23 09:53:36;;;;;;;11.10;5.80;;;;;;;;;;5085532;28;20279;-69
2023/09/23 09:56:03;;;;;;;12.80;5.95;;;;;;;;;;5071074;28;20761;-71
2023/09/23 09:58:38;;;;;;;6.60;5.38;;;;;;;;;;5088157;28;20248;-68
2023/09/23 10:01:04;;;;;;;7.05;5.30;;;;;;;;;;5082446;28;20587;-70
2023/09/23 10:03:29;;;;;;;8.70;4.55;;;;;;;;;;5082087;28;20220;-69
2023/09/23 10:05:59;;;;;;;6.60;4.50;;;;;;;;;;5084509;28;20633;-68
2023/09/23 10:08:24;;;;;;;7.40;4.38;;;;;;;;;;5050110;28;20271;-68
2023/09/23 10:10:57;;;;;;;5.75;3.90;;;;;;;;;;5078358;28;20322;-70
2023/09/23 10:13:23;;;;;;;6.32;3.65;;;;;;;;;;5074285;28;20187;-69
2023/09/23 10:15:49;;;;;;;6.97;3.72;;;;;;;;;;5073785;28;20541;-69
2023/09/23 10:18:16;;;;;;;7.68;3.72;;;;;;;;;;5068866;28;20187;-74
2023/09/23 10:20:48;;;;;;;9.52;4.00;;;;;;;;;;5086690;28;20354;-71
2023/09/23 10:23:15;;;;;;;6.68;3.28;;;;;;;;;;5086254;28;20275;-72
2023/09/23 10:25:46;;;;;;;4.78;3.17;;;;;;;;;;5078182;28;20176;-73
2023/09/23 10:28:25;;;;;;;7.55;3.42;;;;;;;;;;5060712;28;20191;-71
2023/09/23 10:31:02;;;;;;;5.95;3.38;;;;;;;;;;5074268;28;20180;-71
2023/09/23 10:33:30;;;;;;;4.93;3.10;;;;;;;;;;5081571;28;20187;-71
2023/09/23 10:35:59;;;;;;;5.50;3.17;;;;;;;;;;5081930;28;20191;-70
2023/09/23 10:38:25;;;;;;;4.18;3.10;;;;;;;;;;5092364;28;20562;-72
2023/09/23 10:40:52;;;;;;;6.25;3.33;;;;;;;;;;5089869;28;20538;-72
2023/09/23 10:43:20;;;;;;;4.82;2.95;;;;;;;;;;5078167;28;20305;-69
2023/09/23 10:45:45;;;;;;;6.05;2.97;;;;;;;;;;5081786;28;20180;-70
2023/09/23 10:48:14;;;;;;;5.75;3.20;;;;;;;;;;5064063;28;20197;-69
2023/09/23 10:50:40;;;;;;;6.05;3.13;;;;;;;;;;5052780;28;20707;-68
2023/09/23 10:53:07;;;;;;;9.70;3.75;;;;;;;;;;5086458;28;20188;-69
2023/09/23 10:55:34;;;;;;;5.85;3.08;;;;;;;;;;5063424;28;20183;-70
2023/09/23 10:58:04;;;;;;;6.50;3.30;;;;;;;;;;5078188;28;20197;-72
2023/09/23 11:00:33;;;;;;;5.25;2.92;;;;;;;;;;5082233;28;20566;-71
2023/09/23 11:03:05;;;;;;;5.75;3.05;;;;;;;;;;5068910;28;20229;-69
2023/09/23 11:05:30;;;;;;;5.00;3.13;;;;;;;;;;5067187;28;20207;-71
2023/09/23 11:07:56;;;;;;;6.60;2.65;;;;;;;;;;5083768;28;20191;-70
2023/09/23 11:10:23;;;;;;;7.38;2.53;;;;;;;;;;5086127;28;20188;-70
2023/09/23 11:12:49;;;;;;;5.60;2.70;;;;;;;;;;5090905;28;20184;-70
2023/09/23 11:15:14;;;;;;;4.97;2.30;;;;;;;;;;5070181;28;20204;-70
2023/09/23 11:17:41;;;;;;;5.60;2.78;;;;;;;;;;5080568;28;20264;-72
2023/09/23 11:20:10;;;;;;;8.45;2.40;;;;;;;;;;5090832;28;20192;-71
2023/09/23 11:22:37;;;;;;;5.03;2.30;;;;;;;;;;5084204;28;20188;-72
2023/09/23 11:25:11;;;;;;;6.53;1.98;;;;;;;;;;5055816;28;20189;-70
2023/09/23 11:27:37;;;;;;;3.15;1.80;;;;;;;;;;5083240;28;20664;-70
2023/09/23 11:30:04;;;;;;;4.88;2.13;;;;;;;;;;5084528;28;20219;-69
2023/09/23 11:32:31;;;;;;;3.80;2.05;;;;;;;;;;5082068;28;20188;-70
2023/09/23 11:34:56;;;;;;;4.10;2.10;;;;;;;;;;5075189;28;20338;-71
2023/09/23 11:37:22;;;;;;;3.78;2.08;;;;;;;;;;5069425;28;20553;-69
2023/09/23 11:39:48;;;;;;;6.55;2.20;;;;;;;;;;5089846;28;20686;-73
2023/09/23 11:42:14;;;;;;;4.68;2.13;;;;;;;;;;5077539;28;20507;-72
2023/09/23 11:44:39;;;;;;;6.40;2.55;;;;;;;;;;5086898;28;20207;-71
2023/09/23 11:47:05;;;;;;;4.53;2.00;;;;;;;;;;5076360;28;20184;-69
2023/09/23 11:49:30;;;;;;;5.03;2.30;;;;;;;;;;5090182;28;20180;-70
2023/09/23 11:51:56;;;;;;;4.32;2.30;;;;;;;;;;5062205;28;20233;-73
2023/09/23 11:54:21;;;;;;;6.68;2.75;;;;;;;;;;5078052;28;20588;-69
2023/09/23 11:56:47;;;;;;;4.22;2.50;;;;;;;;;;5089872;28;20210;-70
2023/09/23 11:59:14;;;;;;;4.38;2.60;;;;;;;;;;5093569;28;20283;-72
2023/09/23 12:01:40;;;;;;;6.75;2.88;;;;;;;;;;5061408;28;1038505;-71
2023/09/23 12:04:05;;;;;;;7.80;2.70;;;;;;;;;;5072889;28;20595;-70
2023/09/23 12:06:34;;;;;;;3.35;2.35;;;;;;;;;;5095419;28;20192;-73
2023/09/23 12:09:01;;;;;;;6.07;2.50;;;;;;;;;;5087698;28;20581;-69
2023/09/23 12:11:27;;;;;;;4.45;2.30;;;;;;;;;;5081537;28;20188;-71
2023/09/23 12:13:53;;;;;;;8.20;2.90;;;;;;;;;;5074156;28;20255;-71
2023/09/23 12:16:19;;;;;;;6.55;2.65;;;;;;;;;;5091511;28;20529;-71
2023/09/23 12:18:47;;;;;;;8.18;2.55;;;;;;;;;;5091473;28;20184;-71
2023/09/23 12:21:13;;;;;;;5.63;2.35;;;;;;;;;;5077226;28;20255;-73
2023/09/23 12:23:40;;;;;;;5.53;2.33;;;;;;;;;;5073797;28;20330;-70
2023/09/23 12:26:06;;;;;;;7.50;2.45;;;;;;;;;;5093419;28;20665;-69
2023/09/23 12:28:31;;;;;;;5.55;2.47;;;;;;;;;;5086276;28;20184;-70
2023/09/23 12:30:57;;;;;;;2.90;1.70;;;;;;;;;;5071891;28;20565;-71
2023/09/23 12:33:22;;;;;;;3.28;2.33;;;;;;;;;;5086098;28;20292;-71
2023/09/23 12:35:48;;;;;;;6.03;2.40;;;;;;;;;;5084815;28;20243;-72
2023/09/23 12:38:13;;;;;;;6.28;2.10;;;;;;;;;;5083607;28;20242;-68
2023/09/23 12:40:38;;;;;;;5.05;2.03;;;;;;;;;;5083827;28;20219;-70
2023/09/23 12:43:04;;;;;;;5.78;2.00;;;;;;;;;;5041885;28;20172;-71
2023/09/23 12:45:29;;;;;;;4.60;2.00;;;;;;;;;;5085213;28;20604;-69
2023/09/23 12:47:54;;;;;;;5.10;2.22;;;;;;;;;;5083056;28;20184;-71
2023/09/23 12:50:20;;;;;;;4.72;2.28;;;;;;;;;;5081562;28;20211;-70
2023/09/23 12:52:45;;;;;;;4.75;2.08;;;;;;;;;;5079531;28;20658;-72
2023/09/23 12:55:10;;;;;;;7.15;1.80;;;;;;;;;;5075318;28;20192;-71
2023/09/23 12:57:36;;;;;;;7.30;2.50;;;;;;;;;;5080825;28;20238;-69
2023/09/23 13:00:03;;;;;;;6.45;2.40;;;;;;;;;;5084444;28;20183;-72
2023/09/23 13:02:28;;;;;;;3.47;1.60;;;;;;;;;;5077975;28;20248;-71
2023/09/23 13:04:54;;;;;;;5.70;2.08;;;;;;;;;;5080670;28;20665;-73
2023/09/23 13:07:19;;;;;;;6.97;1.55;;;;;;;;;;5091315;28;20196;-73
2023/09/23 13:09:45;;;;;;;4.35;1.60;;;;;;;;;;5088068;28;20187;-72
2023/09/23 13:12:10;;;;;;;4.68;1.60;;;;;;;;;;5078625;28;20478;-73
2023/09/23 13:14:36;;;;;;;3.22;1.38;;;;;;;;;;5078291;28;20529;-72
2023/09/23 13:17:01;;;;;;;5.35;1.30;;;;;;;;;;5082623;28;20211;-69
2023/09/23 13:19:26;;;;;;;4.10;1.52;;;;;;;;;;5068487;28;20703;-73
2023/09/23 13:21:52;;;;;;;5.22;1.67;;;;;;;;;;5078566;28;20447;-72
2023/09/23 13:24:17;;;;;;;2.50;1.08;;;;;;;;;;5062627;28;20185;-71
2023/09/23 13:26:43;;;;;;;3.75;2.03;;;;;;;;;;5079749;28;20204;-73
2023/09/23 13:29:09;;;;;;;5.20;1.60;;;;;;;;;;5064491;28;20188;-72
2023/09/23 13:31:34;;;;;;;3.47;1.20;;;;;;;;;;5084613;28;20253;-72
2023/09/23 13:34:00;;;;;;;4.88;1.63;;;;;;;;;;5085890;28;20630;-72
2023/09/23 13:36:25;;;;;;;4.60;1.17;;;;;;;;;;5084472;28;20269;-70
2023/09/23 13:38:51;;;;;;;7.13;1.42;;;;;;;;;;5070450;28;20270;-71
2023/09/23 13:41:17;;;;;;;4.50;1.95;;;;;;;;;;5084803;28;20192;-69
2023/09/23 13:43:43;;;;;;;3.78;1.48;;;;;;;;;;5082887;28;20195;-71
2023/09/23 13:46:08;;;;;;;2.45;1.30;;;;;;;;;;5088273;28;20203;-70
2023/09/23 13:48:34;;;;;;;4.35;1.45;;;;;;;;;;5082947;28;20325;-71
2023/09/23 13:50:59;;;;;;;2.45;1.60;;;;;;;;;;5082706;28;20184;-71
2023/09/23 13:53:24;;;;;;;2.63;1.17;;;;;;;;;;5063433;28;20203;-70
2023/09/23 13:55:50;;;;;;;2.67;1.25;;;;;;;;;;5065257;28;20204;-71
2023/09/23 13:58:15;;;;;;;2.30;0.90;;;;;;;;;;5077327;28;20638;-68
2023/09/23 14:00:41;;;;;;;2.47;0.98;;;;;;;;;;5088162;28;20211;-70
2023/09/23 14:03:06;;;;;;;2.70;1.00;;;;;;;;;;5081722;28;20339;-69
2023/09/23 14:05:32;;;;;;;1.10;1.00;;;;;;;;;;5080420;28;20184;-70
2023/09/23 14:07:57;;;;;;;2.28;1.10;;;;;;;;;;5079981;28;20300;-69
2023/09/23 14:10:23;;;;;;;2.40;1.20;;;;;;;;;;5090800;28;20206;-69
2023/09/23 14:12:49;;;;;;;6.97;1.40;;;;;;;;;;5078379;28;20279;-71
2023/09/23 14:15:14;;;;;;;2.05;0.90;;;;;;;;;;5073784;28;20194;-71
2023/09/23 14:17:39;;;;;;;3.83;1.00;;;;;;;;;;5087769;28;20677;-68
2023/09/23 14:20:09;;;;;;;1.40;0.70;;;;;;;;;;5087393;28;20212;-68
2023/09/23 14:22:34;;;;;;;3.60;0.90;;;;;;;;;;5083566;28;20203;-69
2023/09/23 14:25:03;;;;;;;2.92;0.70;;;;;;;;;;5087547;28;20674;-72
2023/09/23 14:27:28;;;;;;;3.72;0.70;;;;;;;;;;5061102;28;20184;-72
2023/09/23 14:29:53;;;;;;;2.05;0.90;;;;;;;;;;5084537;28;20249;-72